Time,TemperatureF,DewpointF,PressureIn,WindDirection,WindDirectionDegrees,WindSpeedMPH,WindSpeedGustMPH,Humidity,HourlyPrecipIn,Conditions,Clouds,dailyrainin,SoftwareType,DateUTC
2013-11-26 00:01:00,30.1,26.1,30.16,SW,226,4.0,14.0,85,0.00,,---,0.00,VWS V14.01,2013-11-26 05:01:00,
2013-11-26 00:31:00,30.1,26.4,30.16,West,262,7.0,13.0,86,0.00,,---,0.00,VWS V14.01,2013-11-26 05:31:00,
2013-11-26 01:01:00,29.7,26.0,30.16,SSW,212,3.0,13.0,86,0.00,,---,0.00,VWS V14.01,2013-11-26 06:01:00,
2013-11-26 01:31:00,29.5,25.8,30.16,WSW,237,5.0,8.0,86,0.00,,---,0.00,VWS V14.01,2013-11-26 06:31:00,
2013-11-26 02:01:00,29.5,26.4,30.15,SW,217,2.0,9.0,88,0.00,,---,0.00,VWS V14.01,2013-11-26 07:01:00,
2013-11-26 02:31:00,29.6,26.2,30.15,SSE,152,2.0,8.0,87,0.00,,---,0.00,VWS V14.01,2013-11-26 07:31:00,
2013-11-26 03:01:00,29.4,26.3,30.15,SW,216,3.0,8.0,88,0.00,,---,0.00,VWS V14.01,2013-11-26 08:01:00,
2013-11-26 03:31:00,29.5,26.4,30.15,WSW,247,3.0,8.0,88,0.00,,---,0.00,VWS V14.01,2013-11-26 08:31:00,
2013-11-26 04:01:00,29.6,26.2,30.14,SW,235,2.0,9.0,87,0.00,,---,0.00,VWS V14.01,2013-11-26 09:01:00,
2013-11-26 04:31:00,29.5,26.4,30.14,SW,233,2.0,7.0,88,0.00,,---,0.00,VWS V14.01,2013-11-26 09:31:00,
2013-11-26 05:01:00,29.5,26.7,30.13,SSW,207,1.0,6.0,89,0.00,,---,0.00,VWS V14.01,2013-11-26 10:01:00,
2013-11-26 05:31:00,29.5,26.4,30.13,WSW,252,3.0,6.0,88,0.00,,---,0.00,VWS V14.01,2013-11-26 10:31:00,
2013-11-26 06:01:00,29.8,26.7,30.12,WSW,252,2.0,8.0,88,0.00,,---,0.00,VWS V14.01,2013-11-26 11:01:00,
2013-11-26 06:31:00,29.8,26.4,30.12,SW,224,1.0,7.0,87,0.00,,---,0.00,VWS V14.01,2013-11-26 11:31:00,
2013-11-26 07:01:00,29.5,25.8,30.10,SW,225,2.0,5.0,86,0.00,,---,0.00,VWS V14.01,2013-11-26 12:01:00,
2013-11-26 07:31:00,28.9,25.2,30.09,SW,217,2.0,4.0,86,0.00,,---,0.00,VWS V14.01,2013-11-26 12:31:00,
2013-11-26 08:01:00,27.7,24.6,30.11,SW,231,1.0,3.0,88,0.00,,---,0.00,VWS V14.01,2013-11-26 13:01:00,
2013-11-26 08:31:00,28.7,25.0,30.11,SW,224,1.0,4.0,86,0.00,,---,0.00,VWS V14.01,2013-11-26 13:31:00,
2013-11-26 09:01:00,28.3,24.9,30.10,WSW,245,0.0,2.0,87,0.00,,---,0.00,VWS V14.01,2013-11-26 14:01:00,
2013-11-26 09:31:00,30.5,26.5,30.09,SSW,203,1.0,4.0,85,0.00,,---,0.00,VWS V14.01,2013-11-26 14:31:00,
2013-11-26 10:01:00,31.8,26.6,30.08,West,261,7.0,9.0,81,0.00,,---,0.00,VWS V14.01,2013-11-26 15:01:00,
2013-11-26 10:31:00,32.9,27.1,30.09,SW,217,2.0,8.0,79,0.00,,---,0.00,VWS V14.01,2013-11-26 15:31:00,
2013-11-26 11:01:00,33.9,27.1,30.09,SSW,200,0.0,5.0,76,0.00,,---,0.00,VWS V14.01,2013-11-26 16:01:00,
2013-11-26 11:31:00,34.5,28.0,30.07,West,274,5.0,6.0,77,0.00,,---,0.00,VWS V14.01,2013-11-26 16:31:00,
2013-11-26 12:01:00,34.5,28.0,30.06,SW,229,2.0,8.0,77,0.00,,---,0.00,VWS V14.01,2013-11-26 17:01:00,
2013-11-26 12:31:00,34.4,28.0,30.05,SW,217,1.0,8.0,77,0.00,,---,0.00,VWS V14.01,2013-11-26 17:31:00,
2013-11-26 13:01:00,34.5,28.4,30.04,WSW,237,1.0,8.0,78,0.00,,---,0.00,VWS V14.01,2013-11-26 18:01:00,
2013-11-26 13:31:00,34.6,28.8,30.02,West,262,3.0,7.0,79,0.00,,---,0.00,VWS V14.01,2013-11-26 18:31:00,
2013-11-26 14:01:00,34.7,28.5,30.02,West,269,4.0,9.0,78,0.00,,---,0.00,VWS V14.01,2013-11-26 19:01:00,
2013-11-26 14:31:00,34.4,28.6,30.01,West,272,6.0,10.0,79,0.00,,---,0.00,VWS V14.01,2013-11-26 19:31:00,
2013-11-26 15:01:00,34.0,28.8,30.00,West,259,5.0,8.0,81,0.00,,---,0.00,VWS V14.01,2013-11-26 20:01:00,
2013-11-26 15:31:00,34.0,28.8,29.98,West,269,4.0,7.0,81,0.00,,---,0.00,VWS V14.01,2013-11-26 20:31:00,
2013-11-26 16:01:00,33.9,28.7,29.99,West,280,6.0,8.0,81,0.00,,---,0.00,VWS V14.01,2013-11-26 21:01:00,
2013-11-26 16:31:00,33.8,28.9,29.99,WNW,290,5.0,7.0,82,0.00,,---,0.00,VWS V14.01,2013-11-26 21:31:00,
2013-11-26 17:01:00,33.6,29.0,29.99,WNW,300,5.0,8.0,83,0.00,,---,0.00,VWS V14.01,2013-11-26 22:01:00,
2013-11-26 17:31:00,33.6,29.3,29.99,WNW,296,6.0,8.0,84,0.00,,---,0.00,VWS V14.01,2013-11-26 22:31:00,
2013-11-26 18:01:00,33.3,29.6,29.99,WNW,285,4.0,8.0,86,0.00,,---,0.00,VWS V14.01,2013-11-26 23:01:00,
2013-11-26 18:31:00,33.1,29.4,29.99,WNW,295,8.0,10.0,86,0.00,,---,0.00,VWS V14.01,2013-11-26 23:31:00,
2013-11-26 19:01:00,33.3,30.1,30.00,NW,319,9.0,14.0,88,0.00,,---,0.00,VWS V14.01,2013-11-27 00:01:00,
2013-11-26 19:31:00,31.2,28.1,30.01,North,356,10.0,16.0,88,0.00,,---,0.00,VWS V14.01,2013-11-27 00:31:00,
2013-11-26 20:01:00,30.3,27.2,30.02,North,351,10.0,18.0,88,0.00,,---,0.00,VWS V14.01,2013-11-27 01:01:00,
2013-11-26 20:31:00,29.7,27.1,30.03,North,356,4.0,17.0,90,0.00,,---,0.00,VWS V14.01,2013-11-27 01:31:00,
2013-11-26 21:01:00,29.2,26.9,30.03,North,9,6.0,13.0,91,0.00,,---,0.00,VWS V14.01,2013-11-27 02:01:00,
2013-11-26 21:31:00,28.9,26.3,30.03,North,6,5.0,14.0,90,0.00,,---,0.00,VWS V14.01,2013-11-27 02:31:00,
2013-11-26 22:01:00,29.0,26.7,30.03,NNW,348,6.0,11.0,91,0.00,,---,0.00,VWS V14.01,2013-11-27 03:01:00,
2013-11-26 22:31:00,28.7,25.9,30.03,North,355,7.0,11.0,89,0.00,,---,0.00,VWS V14.01,2013-11-27 03:31:00,
2013-11-26 23:01:00,28.5,25.1,30.03,NNE,12,3.0,12.0,87,0.00,,---,0.00,VWS V14.01,2013-11-27 04:01:00,
2013-11-26 23:31:00,27.6,24.2,30.03,North,6,2.0,7.0,87,0.00,,---,0.00,VWS V14.01,2013-11-27 04:31:00,